SIPS weather

Haras Forum Heliport
Pedro Leopoldo, Minas Gerais, Brazil

Public forecast

Using degrees Celsius for public forecast. Weather courtesy of forecast.io.

Closest aviation weather report (METAR) to Haras Forum Heliport

Closest report is Tancredo Neves International Airport, 10.1 nm (18.7 km) ENE. Retrieved 2020/04/09 01:00 UTC (46 minutes ago):

SBCF 090100Z 12004KT 9999 FEW002 SCT080 20/19 Q1017

Closest aviation forecast (TAF) to Haras Forum Heliport

Closest forecast is Tancredo Neves International Airport, 10.1 nm (18.7 km) ENE. Retrieved 2020-04-09 00:00 UTC (2 hours ago):

TAF SBCF 082100Z 0900/0924 34005KT 8000 TSRA FEW004 BKN020 FEW030CB TN20/0909Z TX27/0918Z BECMG 0903/0905 20003KT BECMG 0906/0908 16005KT 8000 SHRA SCT010 BECMG 0914/0916 27005KT 9000 BKN030 BECMG 0919/0921 33005KT 9999 FEW040 BECMG 0922/0924 35008KT 8000 FEW040 RMK PAY